Grand Canyon National Park, Arizona
Current Conditions -  °F | °C
As of 10:54 PM on Tuesday 25 Nov 2014 (Local Time) from KGCN Reporting Station
Clear Clear  
Wind Chill: 21°   Ceiling: Unl
Heat Index: 21°   Visibility: 10mi
Dew Point:   Wind: 0mph
Humidity: 50%   Direction: NA
Pressure: 30.45"   Gusts: NA
Location:  36.0547°N, 112.138°W
Report Text: KGCN 260554Z AUTO 00000KT 10SM CLR M06/M15 A3045 RMK AO2 SLP309 T10611150 10078 21067 50003
Loading
Personal Weather Stations






























Interactive Weather Map New forecast layout! Learn more

10-Day Weather Forecast

Advertisements
Track Severe Weather on mobile